createdAt,value
2023-04-17T00:01:26.072Z,27.90
2023-04-17T00:03:53.148Z,26.05
2023-04-17T00:06:20.170Z,24.90
2023-04-17T00:08:46.989Z,24.60
2023-04-17T00:11:13.634Z,25.13
2023-04-17T00:13:40.368Z,26.55
2023-04-17T00:16:08.418Z,26.08
2023-04-17T00:18:35.148Z,24.98
2023-04-17T00:21:01.832Z,25.75
2023-04-17T00:23:28.552Z,26.33
2023-04-17T00:25:55.260Z,23.75
2023-04-17T00:28:21.967Z,23.27
2023-04-17T00:30:48.625Z,25.95
2023-04-17T00:33:15.783Z,23.38
2023-04-17T00:35:42.411Z,28.33
2023-04-17T00:38:09.396Z,25.38
2023-04-17T00:40:36.152Z,26.65
2023-04-17T00:43:03.593Z,26.00
2023-04-17T00:45:30.870Z,25.38
2023-04-17T00:47:58.050Z,24.55
2023-04-17T00:50:24.776Z,23.73
2023-04-17T00:52:51.970Z,25.17
2023-04-17T00:55:18.686Z,23.13
2023-04-17T00:57:45.463Z,25.02
2023-04-17T01:00:12.829Z,23.90
2023-04-17T01:02:39.630Z,26.42
2023-04-17T01:05:06.674Z,24.05
2023-04-17T01:07:33.333Z,26.30
2023-04-17T01:10:00.040Z,22.55
2023-04-17T01:12:26.967Z,25.23
2023-04-17T01:14:54.588Z,25.45
2023-04-17T01:17:21.955Z,26.38
2023-04-17T01:19:49.769Z,23.48
2023-04-17T01:22:16.733Z,25.05
2023-04-17T01:24:43.871Z,24.45
2023-04-17T01:27:13.770Z,23.67
2023-04-17T01:29:41.069Z,24.50
2023-04-17T01:32:08.029Z,25.60
2023-04-17T01:34:37.290Z,26.90
2023-04-17T01:37:04.276Z,26.60
2023-04-17T01:39:31.269Z,23.92
2023-04-17T01:41:57.917Z,28.95
2023-04-17T01:44:24.741Z,26.75
2023-04-17T01:46:51.554Z,23.63
2023-04-17T01:49:18.357Z,26.80
2023-04-17T01:51:44.996Z,24.55
2023-04-17T01:54:11.795Z,22.33
2023-04-17T01:56:38.512Z,25.90
2023-04-17T01:59:05.228Z,25.02
2023-04-17T02:01:32.055Z,24.63
2023-04-17T02:03:59.036Z,27.27
2023-04-17T02:06:27.489Z,23.40
2023-04-17T02:08:54.285Z,23.63
2023-04-17T02:11:21.178Z,24.75
2023-04-17T02:13:47.888Z,24.20
2023-04-17T02:16:14.693Z,24.55
2023-04-17T02:18:41.658Z,24.23
2023-04-17T02:21:09.813Z,25.15
2023-04-17T02:23:36.544Z,23.50
2023-04-17T02:26:03.288Z,25.85
2023-04-17T02:28:30.080Z,27.23
2023-04-17T02:30:56.981Z,25.92
2023-04-17T02:33:23.841Z,26.08
2023-04-17T02:35:50.687Z,28.27
2023-04-17T02:39:00.236Z,26.75
2023-04-17T02:41:26.960Z,25.27
2023-04-17T02:43:53.652Z,23.73
2023-04-17T02:46:20.332Z,25.58
2023-04-17T02:48:47.133Z,24.35
2023-04-17T02:51:13.829Z,22.35
2023-04-17T02:53:41.328Z,25.40
2023-04-17T02:56:08.038Z,22.15
2023-04-17T02:58:34.717Z,24.65
2023-04-17T03:01:02.874Z,29.27
2023-04-17T03:03:31.273Z,24.25
2023-04-17T03:05:58.086Z,27.13
2023-04-17T03:08:24.916Z,24.42
2023-04-17T03:10:51.526Z,23.45
2023-04-17T03:13:18.404Z,24.55
2023-04-17T03:15:45.029Z,26.08
2023-04-17T03:18:11.761Z,30.40
2023-04-17T03:20:38.391Z,23.25
2023-04-17T03:23:05.094Z,25.25
2023-04-17T03:25:31.720Z,25.05
2023-04-17T03:27:58.451Z,28.70
2023-04-17T03:30:25.314Z,26.50
2023-04-17T03:32:52.046Z,28.73
2023-04-17T03:35:18.873Z,28.38
2023-04-17T03:37:45.578Z,25.73
2023-04-17T03:40:12.462Z,26.98
2023-04-17T03:42:39.156Z,25.75
2023-04-17T03:45:06.617Z,26.88
2023-04-17T03:47:33.329Z,28.52
2023-04-17T03:50:00.095Z,26.98
2023-04-17T03:52:26.895Z,28.25
2023-04-17T03:54:53.568Z,28.88
2023-04-17T03:57:20.422Z,26.90
2023-04-17T03:59:47.192Z,28.05
2023-04-17T04:02:14.449Z,30.52
2023-04-17T04:04:44.508Z,28.95
2023-04-17T04:07:11.180Z,30.92
2023-04-17T04:09:38.072Z,28.10
2023-04-17T04:12:04.843Z,26.90
2023-04-17T04:14:31.729Z,28.52
2023-04-17T04:17:01.754Z,27.92
2023-04-17T04:19:28.567Z,27.98
2023-04-17T04:21:55.609Z,31.80
2023-04-17T04:24:22.323Z,31.88
2023-04-17T04:26:49.825Z,31.15
2023-04-17T04:29:16.645Z,34.33
2023-04-17T04:31:46.869Z,28.02
2023-04-17T04:34:13.725Z,28.77
2023-04-17T04:36:49.981Z,29.98
2023-04-17T04:39:20.350Z,29.92
2023-04-17T04:41:50.906Z,31.20
2023-04-17T04:44:18.466Z,30.50
2023-04-17T04:46:45.760Z,34.65
2023-04-17T04:49:13.353Z,28.88
2023-04-17T04:51:40.086Z,31.02
2023-04-17T04:54:06.805Z,30.67
2023-04-17T04:56:33.519Z,28.73
2023-04-17T04:59:00.282Z,30.30
2023-04-17T05:01:28.008Z,28.35
2023-04-17T05:03:55.082Z,28.83
2023-04-17T05:06:21.910Z,24.10
2023-04-17T05:08:48.842Z,29.10
2023-04-17T05:11:15.873Z,25.65
2023-04-17T05:13:42.562Z,29.95
2023-04-17T05:16:09.349Z,29.52
2023-04-17T05:18:36.159Z,27.80
2023-04-17T05:21:02.904Z,28.20
2023-04-17T05:23:29.807Z,27.38
2023-04-17T05:25:56.470Z,27.75
2023-04-17T05:28:23.363Z,25.58
2023-04-17T05:30:52.328Z,26.52
2023-04-17T05:33:19.323Z,28.58
2023-04-17T05:35:46.919Z,29.23
2023-04-17T05:38:13.633Z,31.17
2023-04-17T05:40:40.398Z,26.00
2023-04-17T05:43:11.066Z,31.65
2023-04-17T05:45:38.204Z,28.65
2023-04-17T05:48:05.089Z,27.33
2023-04-17T05:50:31.763Z,31.73
2023-04-17T05:52:58.462Z,28.75
2023-04-17T05:55:25.143Z,25.75
2023-04-17T05:57:51.833Z,30.60
2023-04-17T06:00:18.876Z,28.35
2023-04-17T06:02:45.688Z,28.45
2023-04-17T06:05:12.951Z,27.52
2023-04-17T06:07:40.536Z,29.48
2023-04-17T06:10:09.026Z,31.35
2023-04-17T06:12:36.548Z,31.27
2023-04-17T06:15:04.441Z,24.70
2023-04-17T06:17:31.827Z,28.80
2023-04-17T06:19:58.483Z,28.05
2023-04-17T06:22:25.743Z,27.35
2023-04-17T06:24:52.477Z,29.17
2023-04-17T06:27:19.145Z,25.33
2023-04-17T06:29:46.197Z,24.08
2023-04-17T06:32:12.833Z,26.05
2023-04-17T06:34:48.885Z,30.05
2023-04-17T06:37:25.049Z,26.23
2023-04-17T06:39:51.763Z,26.75
2023-04-17T06:42:18.465Z,25.88
2023-04-17T06:44:45.284Z,22.65
2023-04-17T06:47:11.983Z,24.33
2023-04-17T06:49:38.663Z,28.63
2023-04-17T06:52:05.558Z,25.80
2023-04-17T06:54:32.984Z,27.85
2023-04-17T06:56:59.705Z,23.63
2023-04-17T06:59:26.546Z,26.95
2023-04-17T07:01:53.313Z,26.73
2023-04-17T07:04:21.180Z,26.67
2023-04-17T07:06:48.199Z,24.67
2023-04-17T07:09:15.067Z,25.95
2023-04-17T07:11:42.033Z,26.40
2023-04-17T07:14:10.311Z,23.65
2023-04-17T07:16:38.373Z,29.15
2023-04-17T07:19:05.148Z,27.67
2023-04-17T07:21:32.761Z,23.58
2023-04-17T07:23:59.603Z,22.90
2023-04-17T07:26:27.030Z,23.00
2023-04-17T07:28:53.932Z,24.30
2023-04-17T07:31:22.246Z,24.35
2023-04-17T07:33:49.678Z,22.63
2023-04-17T07:36:17.428Z,20.65
2023-04-17T07:38:44.355Z,23.73
2023-04-17T07:41:12.497Z,22.17
2023-04-17T07:43:39.298Z,20.17
2023-04-17T07:46:06.170Z,24.58
2023-04-17T07:48:33.319Z,19.42
2023-04-17T07:51:01.621Z,19.77
2023-04-17T07:53:29.177Z,20.63
2023-04-17T07:55:56.384Z,23.00
2023-04-17T07:58:24.306Z,20.10
2023-04-17T08:00:52.118Z,19.55
2023-04-17T08:03:24.562Z,20.33
2023-04-17T08:05:54.292Z,19.73
2023-04-17T08:08:47.787Z,17.95
2023-04-17T08:11:14.939Z,18.83
2023-04-17T08:13:41.963Z,15.80
2023-04-17T08:16:10.005Z,15.68
2023-04-17T08:18:37.903Z,13.40
2023-04-17T08:21:04.876Z,14.45
2023-04-17T08:23:31.586Z,13.65
2023-04-17T08:25:58.422Z,14.63
2023-04-17T08:28:25.255Z,12.98
2023-04-17T08:30:52.166Z,12.88
2023-04-17T08:33:18.918Z,13.93
2023-04-17T08:35:45.773Z,12.00
2023-04-17T08:38:14.674Z,18.17
2023-04-17T08:40:47.097Z,13.35
2023-04-17T08:43:19.596Z,12.07
2023-04-17T08:45:55.481Z,12.20
2023-04-17T08:48:23.384Z,12.57
2023-04-17T08:50:51.676Z,11.48
2023-04-17T08:53:19.080Z,11.40
2023-04-17T08:55:46.422Z,8.52
2023-04-17T08:58:14.669Z,7.63
2023-04-17T09:00:42.834Z,7.97
2023-04-17T09:03:13.922Z,7.63
2023-04-17T09:05:43.794Z,8.45
2023-04-17T09:08:26.198Z,8.57
2023-04-17T09:10:55.551Z,7.78
2023-04-17T09:13:25.186Z,8.20
2023-04-17T09:16:08.917Z,7.65
2023-04-17T09:18:36.791Z,7.47
2023-04-17T09:21:04.525Z,7.47
2023-04-17T09:23:51.886Z,7.18
2023-04-17T09:26:27.986Z,7.65
2023-04-17T09:29:14.832Z,6.07
2023-04-17T09:31:42.875Z,9.75
2023-04-17T09:34:14.086Z,7.38
2023-04-17T09:36:43.249Z,6.85
2023-04-17T09:39:21.232Z,7.47
2023-04-17T09:41:48.071Z,8.45
2023-04-17T09:44:28.195Z,8.57
2023-04-17T09:46:55.066Z,6.93
2023-04-17T09:49:42.454Z,8.93
2023-04-17T09:52:09.423Z,6.63
2023-04-17T09:54:38.335Z,6.38
2023-04-17T09:57:09.344Z,8.45
2023-04-17T09:59:49.107Z,6.53
2023-04-17T10:02:17.880Z,7.78
2023-04-17T10:04:46.373Z,7.75
2023-04-17T10:07:13.817Z,8.60
2023-04-17T10:09:41.897Z,6.90
2023-04-17T10:12:18.880Z,8.23
2023-04-17T10:14:48.623Z,8.95
2023-04-17T10:17:31.640Z,7.68
2023-04-17T10:20:23.317Z,6.10
2023-04-17T10:22:57.319Z,5.60
2023-04-17T10:25:25.218Z,4.95
2023-04-17T10:27:58.322Z,5.03
2023-04-17T10:30:26.850Z,5.82
2023-04-17T10:33:22.082Z,5.35
2023-04-17T10:35:48.952Z,4.72
2023-04-17T10:38:16.414Z,5.47
2023-04-17T10:40:44.178Z,5.53
2023-04-17T10:43:11.945Z,4.07
2023-04-17T10:45:58.381Z,4.43
2023-04-17T10:48:52.512Z,5.38
2023-04-17T10:51:23.478Z,4.55
2023-04-17T10:54:00.503Z,4.45
2023-04-17T10:56:40.049Z,4.20
2023-04-17T10:59:08.438Z,4.93
2023-04-17T11:01:41.911Z,5.75
2023-04-17T11:04:08.924Z,5.38
2023-04-17T11:06:43.178Z,3.92
2023-04-17T11:09:11.430Z,4.20
2023-04-17T11:11:44.489Z,4.88
2023-04-17T11:14:19.978Z,4.68
2023-04-17T11:16:49.061Z,4.55
2023-04-17T11:19:23.276Z,3.28
2023-04-17T11:21:52.284Z,5.82
2023-04-17T11:24:29.849Z,4.05
2023-04-17T11:26:59.753Z,5.05
2023-04-17T11:29:27.394Z,4.20
2023-04-17T11:31:56.335Z,4.20
2023-04-17T11:34:23.526Z,3.80
2023-04-17T11:36:56.263Z,4.35
2023-04-17T11:39:24.714Z,4.25
2023-04-17T11:41:52.012Z,4.82
2023-04-17T11:44:20.561Z,4.50
2023-04-17T11:46:54.945Z,4.05
2023-04-17T11:49:29.778Z,4.80
2023-04-17T11:52:00.324Z,5.32
2023-04-17T11:54:30.971Z,4.70
2023-04-17T11:57:04.685Z,4.38
2023-04-17T11:59:35.201Z,6.50
2023-04-17T12:02:02.557Z,5.20
2023-04-17T12:04:31.321Z,7.72
2023-04-17T12:07:02.925Z,5.00
2023-04-17T12:09:32.050Z,4.82
2023-04-17T12:11:59.660Z,5.65
2023-04-17T12:14:26.776Z,5.18
2023-04-17T12:16:53.695Z,4.47
2023-04-17T12:19:20.566Z,4.72
2023-04-17T12:21:50.013Z,5.25
2023-04-17T12:24:18.440Z,4.70
2023-04-17T12:26:48.823Z,5.13
2023-04-17T12:29:17.151Z,4.90
2023-04-17T12:31:45.063Z,6.15
2023-04-17T12:34:12.122Z,8.15
2023-04-17T12:36:39.125Z,5.60
2023-04-17T12:39:05.852Z,4.78
2023-04-17T12:41:32.518Z,5.35
2023-04-17T12:44:03.830Z,5.55
2023-04-17T12:46:31.003Z,5.20
2023-04-17T12:49:00.496Z,6.72
2023-04-17T12:51:30.573Z,5.78
2023-04-17T12:53:57.442Z,6.50
2023-04-17T12:56:24.204Z,6.20
2023-04-17T12:58:51.141Z,5.03
2023-04-17T13:01:17.824Z,5.72
2023-04-17T13:03:44.724Z,4.78
2023-04-17T13:06:11.598Z,6.13
2023-04-17T13:08:38.267Z,4.90
2023-04-17T13:11:05.252Z,4.15
2023-04-17T13:13:31.944Z,5.28
2023-04-17T13:15:58.849Z,5.10
2023-04-17T13:18:26.490Z,4.85
2023-04-17T13:20:53.118Z,4.22
2023-04-17T13:23:19.786Z,5.25
2023-04-17T13:25:47.263Z,3.88
2023-04-17T13:28:13.974Z,3.42
2023-04-17T13:30:40.691Z,3.67
2023-04-17T13:33:07.804Z,3.95
2023-04-17T13:35:34.759Z,3.72
2023-04-17T13:38:03.257Z,4.35
2023-04-17T13:40:31.203Z,5.30
2023-04-17T13:42:58.704Z,4.22
2023-04-17T13:45:25.624Z,4.38
2023-04-17T13:47:52.517Z,4.90
2023-04-17T13:50:19.298Z,7.25
2023-04-17T13:52:46.101Z,5.35
2023-04-17T13:55:14.777Z,3.70
2023-04-17T13:57:41.726Z,4.13
2023-04-17T14:00:09.224Z,5.00
2023-04-17T14:02:36.170Z,5.30
2023-04-17T14:05:03.298Z,4.82
2023-04-17T14:07:30.188Z,4.13
2023-04-17T14:09:56.801Z,4.50
2023-04-17T14:12:23.677Z,4.25
2023-04-17T14:14:50.383Z,4.00
2023-04-17T14:17:17.523Z,3.30
2023-04-17T14:19:44.606Z,4.88
2023-04-17T14:22:11.375Z,4.63
2023-04-17T14:24:38.041Z,3.58
2023-04-17T14:27:04.748Z,4.43
2023-04-17T14:29:31.385Z,4.28
2023-04-17T14:31:58.183Z,3.65
2023-04-17T14:34:25.094Z,3.80
2023-04-17T14:36:51.816Z,4.43
2023-04-17T14:39:19.764Z,3.35
2023-04-17T14:41:46.453Z,4.55
2023-04-17T14:44:13.517Z,6.28
2023-04-17T14:46:40.418Z,5.25
2023-04-17T14:49:07.151Z,5.32
2023-04-17T14:51:33.969Z,4.30
2023-04-17T14:54:00.720Z,6.53
2023-04-17T14:56:27.460Z,3.53
2023-04-17T14:58:54.136Z,4.10
2023-04-17T15:01:20.867Z,4.15
2023-04-17T15:03:48.673Z,5.38
2023-04-17T15:06:16.346Z,3.88
2023-04-17T15:08:43.303Z,5.25
2023-04-17T15:11:10.504Z,4.45
2023-04-17T15:13:37.515Z,4.97
2023-04-17T15:16:04.494Z,3.67
2023-04-17T15:18:31.404Z,4.50
2023-04-17T15:20:58.216Z,4.18
2023-04-17T15:23:26.759Z,3.70
2023-04-17T15:25:57.549Z,3.97
2023-04-17T15:28:25.603Z,3.80
2023-04-17T15:30:52.506Z,4.15
2023-04-17T15:33:19.717Z,3.75
2023-04-17T15:35:47.768Z,3.47
2023-04-17T15:38:14.959Z,3.95
2023-04-17T15:40:42.709Z,4.55
2023-04-17T15:43:10.774Z,5.57
2023-04-17T15:45:37.904Z,4.03
2023-04-17T15:48:04.781Z,3.60
2023-04-17T15:50:31.581Z,3.42
2023-04-17T15:52:58.363Z,2.80
2023-04-17T15:55:25.112Z,3.63
2023-04-17T15:57:52.860Z,3.60
2023-04-17T16:00:20.159Z,3.13
2023-04-17T16:02:48.137Z,3.28
2023-04-17T16:05:15.796Z,5.25
2023-04-17T16:07:42.656Z,3.17
2023-04-17T16:10:13.915Z,3.35
2023-04-17T16:12:44.592Z,4.65
2023-04-17T16:15:11.938Z,3.67
2023-04-17T16:17:38.983Z,3.10
2023-04-17T16:20:06.953Z,4.15
2023-04-17T16:22:33.783Z,3.95
2023-04-17T16:25:01.931Z,4.28
2023-04-17T16:27:29.282Z,12.38
2023-04-17T16:29:56.070Z,3.05
2023-04-17T16:32:24.662Z,3.70
2023-04-17T16:34:52.107Z,4.43
2023-04-17T16:37:18.988Z,5.00
2023-04-17T16:39:45.662Z,5.03
2023-04-17T16:42:12.354Z,3.15
2023-04-17T16:44:39.217Z,2.80
2023-04-17T16:47:13.218Z,2.38
2023-04-17T16:49:40.991Z,2.63
2023-04-17T16:52:07.696Z,2.72
2023-04-17T16:54:34.884Z,2.88
2023-04-17T16:57:01.746Z,2.75
2023-04-17T16:59:28.635Z,2.60
2023-04-17T17:01:55.450Z,3.45
2023-04-17T17:04:22.407Z,5.60
2023-04-17T17:06:49.314Z,2.45
2023-04-17T17:09:16.423Z,2.33
2023-04-17T17:11:43.122Z,2.95
2023-04-17T17:14:10.099Z,2.75
2023-04-17T17:16:36.933Z,6.07
2023-04-17T17:19:04.346Z,2.70
2023-04-17T17:21:31.435Z,2.38
2023-04-17T17:23:58.553Z,3.75
2023-04-17T17:26:25.389Z,2.47
2023-04-17T17:28:53.511Z,3.58
2023-04-17T17:31:20.717Z,2.30
2023-04-17T17:33:50.465Z,2.33
2023-04-17T17:36:17.421Z,5.13
2023-04-17T17:38:44.585Z,2.72
2023-04-17T17:41:11.310Z,2.35
2023-04-17T17:43:38.185Z,2.38
2023-04-17T17:46:04.924Z,1.60
2023-04-17T17:48:31.681Z,2.15
2023-04-17T17:50:58.329Z,2.67
2023-04-17T17:53:26.916Z,1.70
2023-04-17T17:55:55.241Z,1.98
2023-04-17T17:58:22.261Z,1.95
2023-04-17T18:00:49.712Z,1.80
2023-04-17T18:03:16.950Z,1.83
2023-04-17T18:05:44.105Z,2.40
2023-04-17T18:08:10.796Z,2.38
2023-04-17T18:10:37.540Z,1.80
2023-04-17T18:13:04.443Z,2.90
2023-04-17T18:15:31.226Z,1.85
2023-04-17T18:17:57.982Z,1.60
2023-04-17T18:20:24.683Z,1.55
2023-04-17T18:22:52.099Z,1.40
2023-04-17T18:25:19.097Z,2.00
2023-04-17T18:27:45.801Z,1.20
2023-04-17T18:30:13.061Z,1.58
2023-04-17T18:32:41.020Z,1.25
2023-04-17T18:35:08.169Z,1.30
2023-04-17T18:37:34.830Z,1.02
2023-04-17T18:40:01.703Z,1.67
2023-04-17T18:42:28.597Z,1.80
2023-04-17T18:44:55.402Z,2.13
2023-04-17T18:47:22.117Z,1.42
2023-04-17T18:49:52.272Z,1.85
2023-04-17T18:52:19.262Z,1.40
2023-04-17T18:54:46.055Z,2.30
2023-04-17T18:57:12.748Z,2.08
2023-04-17T18:59:40.517Z,1.98
2023-04-17T19:02:08.794Z,2.15
2023-04-17T19:04:35.524Z,2.00
2023-04-17T19:07:02.879Z,2.40
2023-04-17T19:09:29.580Z,5.50
2023-04-17T19:11:56.900Z,2.83
2023-04-17T19:14:23.777Z,2.67
2023-04-17T19:16:50.717Z,6.32
2023-04-17T19:19:17.714Z,3.38
2023-04-17T19:21:44.381Z,3.67
2023-04-17T19:24:11.108Z,3.28
2023-04-17T19:26:38.185Z,3.50
2023-04-17T19:29:05.256Z,3.38
2023-04-17T19:31:33.050Z,4.80
2023-04-17T19:34:00.548Z,4.18
2023-04-17T19:36:28.211Z,3.95
2023-04-17T19:38:55.918Z,4.25
2023-04-17T19:41:22.619Z,4.20
2023-04-17T19:43:51.291Z,4.45
2023-04-17T19:46:19.010Z,6.13
2023-04-17T19:48:46.369Z,4.97
2023-04-17T19:51:14.502Z,4.57
2023-04-17T19:53:42.326Z,6.45
2023-04-17T19:56:09.570Z,5.20
2023-04-17T19:58:36.759Z,5.40
2023-04-17T20:01:03.890Z,5.50
2023-04-17T20:03:31.913Z,5.32
2023-04-17T20:05:59.137Z,5.47
2023-04-17T20:08:29.187Z,6.53
2023-04-17T20:10:55.971Z,6.63
2023-04-17T20:13:22.776Z,6.22
2023-04-17T20:15:49.586Z,7.05
2023-04-17T20:18:17.883Z,9.48
2023-04-17T20:20:44.645Z,7.88
2023-04-17T20:23:11.591Z,9.85
2023-04-17T20:25:38.232Z,8.82
2023-04-17T20:28:05.287Z,9.27
2023-04-17T20:30:32.103Z,10.85
2023-04-17T20:32:58.899Z,12.05
2023-04-17T20:35:25.721Z,11.68
2023-04-17T20:37:52.538Z,11.13
2023-04-17T20:40:19.593Z,10.18
2023-04-17T20:42:46.857Z,14.15
2023-04-17T20:45:13.736Z,10.63
2023-04-17T20:47:55.412Z,13.27
2023-04-17T20:50:23.604Z,10.23
2023-04-17T20:52:50.347Z,9.98
2023-04-17T20:55:18.905Z,9.70
2023-04-17T20:57:46.103Z,13.20
2023-04-17T21:00:13.113Z,11.02
2023-04-17T21:02:40.010Z,9.75
2023-04-17T21:05:07.394Z,11.85
2023-04-17T21:07:34.413Z,11.80
2023-04-17T21:10:01.234Z,11.00
2023-04-17T21:12:28.244Z,10.38
2023-04-17T21:14:55.253Z,10.70
2023-04-17T21:17:21.974Z,10.68
2023-04-17T21:19:49.474Z,12.93
2023-04-17T21:22:16.449Z,11.98
2023-04-17T21:24:43.218Z,11.48
2023-04-17T21:27:10.541Z,11.32
2023-04-17T21:29:37.606Z,12.52
2023-04-17T21:32:04.503Z,12.75
2023-04-17T21:34:31.320Z,14.98
2023-04-17T21:37:01.398Z,14.82
2023-04-17T21:39:28.056Z,13.15
2023-04-17T21:41:54.720Z,12.98
2023-04-17T21:44:21.521Z,13.02
2023-04-17T21:46:48.306Z,14.15
2023-04-17T21:49:15.047Z,14.00
2023-04-17T21:51:41.791Z,14.27
2023-04-17T21:54:09.155Z,13.60
2023-04-17T21:56:36.319Z,14.75
2023-04-17T21:59:03.786Z,14.50
2023-04-17T22:01:30.634Z,14.93
2023-04-17T22:03:57.468Z,16.10
2023-04-17T22:06:24.295Z,18.08
2023-04-17T22:08:50.973Z,13.82
2023-04-17T22:11:17.695Z,14.95
2023-04-17T22:13:45.237Z,13.93
2023-04-17T22:16:12.101Z,15.95
2023-04-17T22:18:39.522Z,16.42
2023-04-17T22:21:06.401Z,16.30
2023-04-17T22:23:33.092Z,13.93
2023-04-17T22:25:59.736Z,17.33
2023-04-17T22:28:30.121Z,16.20
2023-04-17T22:30:57.888Z,16.00
2023-04-17T22:33:24.733Z,15.40
2023-04-17T22:35:51.343Z,13.23
2023-04-17T22:38:19.423Z,13.13
2023-04-17T22:40:46.090Z,13.95
2023-04-17T22:43:12.778Z,16.23
2023-04-17T22:45:39.432Z,15.38
2023-04-17T22:48:06.560Z,17.00
2023-04-17T22:50:33.235Z,15.48
2023-04-17T22:52:59.884Z,14.73
2023-04-17T22:55:26.661Z,14.40
2023-04-17T22:57:53.407Z,16.60
2023-04-17T23:00:20.311Z,14.98
2023-04-17T23:02:47.456Z,13.90
2023-04-17T23:05:14.451Z,14.55
2023-04-17T23:07:41.353Z,13.55
2023-04-17T23:10:08.391Z,15.98
2023-04-17T23:12:35.069Z,16.52
2023-04-17T23:15:01.813Z,13.90
2023-04-17T23:17:28.516Z,14.57
2023-04-17T23:19:55.726Z,16.50
2023-04-17T23:22:22.565Z,16.60
2023-04-17T23:24:49.280Z,15.77
2023-04-17T23:27:15.957Z,17.92
2023-04-17T23:29:42.597Z,16.67
2023-04-17T23:32:09.467Z,19.13
2023-04-17T23:34:36.173Z,16.05
2023-04-17T23:37:03.420Z,17.30
2023-04-17T23:39:30.075Z,16.85
2023-04-17T23:41:57.725Z,15.00
2023-04-17T23:44:24.414Z,12.63
2023-04-17T23:46:51.459Z,15.82
2023-04-17T23:49:18.204Z,15.75
2023-04-17T23:51:45.075Z,17.67
2023-04-17T23:54:12.429Z,16.08
2023-04-17T23:56:39.255Z,17.80
2023-04-17T23:59:05.979Z,15.43
